| time (UTC) | temp C | wind direction | speed KPH | gust KPH | rain 1hr cm | rain 24hr cm | rain mn cm | humidity % | barometer mb |
| 20260505070549 | 22 | 76 | 8.0 | 12.9 | 0.00 | 0.00 | 0.00 | 1011.6 | |
| 20260505065548 | 23 | 110 | 11.3 | 16.1 | 0.00 | 0.00 | 0.00 | 1011.8 | |
| 20260505064548 | 23 | 114 | 11.3 | 14.5 | 0.00 | 0.00 | 0.00 | 1011.9 | |
| 20260505063936 | 23 | 56 | 9.7 | 16.1 | 0.00 | 0.00 | 0.00 | 1012.0 | |
| 20260505063547 | 23 | 56 | 9.7 | 16.1 | 0.00 | 0.00 | 0.00 | 1012.0 | |
| 20260505062547 | 23 | 58 | 11.3 | 16.1 | 0.00 | 0.00 | 0.00 | 1012.2 | |
| 20260505061547 | 23 | 66 | 9.7 | 16.1 | 0.00 | 0.00 | 0.00 | 1012.5 | |
| 20260505060546 | 23 | 62 | 9.7 | 12.9 | 0.00 | 0.00 | 0.00 | 1012.6 | |
| 20260505055545 | 23 | 56 | 11.3 | 16.1 | 0.00 | 0.00 | 0.00 | 1012.5 | |
| 20260505054545 | 23 | 77 | 12.9 | 17.7 | 0.00 | 0.00 | 0.00 | 1012.6 | |
| 20260505053544 | 23 | 66 | 11.3 | 16.1 | 0.00 | 0.00 | 0.00 | 1012.7 | |
| 20260505052544 | 23 | 117 | 8.0 | 11.3 | 0.00 | 0.00 | 0.00 | 1012.7 | |
| 20260505050703 | 23 | 105 | 8.0 | 14.5 | 0.00 | 0.00 | 0.00 | 1012.8 | |
| 20260505050544 | 23 | 105 | 8.0 | 14.5 | 0.00 | 0.00 | 0.00 | 1012.8 | |
| 20260505041542 | 24 | 111 | 9.7 | 14.5 | 0.00 | 0.00 | 0.00 | 1013.1 | |
| 20260505041037 | 25 | 121 | 9.7 | 14.5 | 0.00 | 0.00 | 0.00 | 1013.1 | |
| 20260505040542 | 25 | 121 | 9.7 | 14.5 | 0.00 | 0.00 | 0.00 | 1013.1 | |
| 20260505035706 | 25 | 62 | 9.7 | 14.5 | 0.00 | 0.00 | 0.00 | 1013.3 | |
| 20260505035541 | 25 | 62 | 9.7 | 14.5 | 0.00 | 0.00 | 0.00 | 1013.3 | |
| 20260505034733 | 25 | 63 | 9.7 | 16.1 | 0.00 | 0.00 | 0.00 | 1013.2 | |
| 20260505034540 | 25 | 63 | 9.7 | 16.1 | 0.00 | 0.00 | 0.00 | 1013.2 | |
| 20260505034306 | 25 | 58 | 9.7 | 12.9 | 0.00 | 0.00 | 0.00 | 1013.2 | |
| 20260505033540 | 25 | 58 | 9.7 | 12.9 | 0.00 | 0.00 | 0.00 | 1013.2 | |
| 20260505033503 | 25 | 118 | 11.3 | 14.5 | 0.00 | 0.00 | 0.00 | 1013.1 | |
| 20260505032540 | 25 | 118 | 11.3 | 14.5 | 0.00 | 0.00 | 0.00 | 1013.1 | |
| 20260505031540 | 25 | 94 | 11.3 | 17.7 | 0.00 | 0.00 | 0.00 | 1013.4 | |
| 20260505030539 | 26 | 89 | 9.7 | 14.5 | 0.00 | 0.00 | 0.00 | 1013.2 | |
| 20260505025537 | 26 | 68 | 12.9 | 17.7 | 0.00 | 0.00 | 0.00 | 1013.3 | |
| 20260505024537 | 25 | 100 | 9.7 | 14.5 | 0.00 | 0.00 | 0.00 | 1013.0 | |
| 20260505023536 | 26 | 86 | 11.3 | 16.1 | 0.00 | 0.00 | 0.00 | 1012.9 | |
| 20260505022536 | 26 | 108 | 8.0 | 12.9 | 0.00 | 0.00 | 0.00 | 1012.9 | |
| 20260505021536 | 26 | 79 | 11.3 | 24.1 | 0.00 | 0.00 | 0.00 | 1012.9 | |
| 20260505020536 | 26 | 111 | 12.9 | 22.5 | 0.00 | 0.00 | 0.00 | 1013.0 | |
| 20260505015535 | 26 | 55 | 12.9 | 17.7 | 0.00 | 0.00 | 0.00 | 1012.9 | |
| 20260505014535 | 26 | 75 | 16.1 | 25.7 | 0.00 | 0.00 | 0.00 | 1012.7 | |
| 20260505013535 | 27 | 84 | 11.3 | 16.1 | 0.00 | 0.00 | 0.00 | 1012.5 | |
| 20260505013216 | 27 | 96 | 12.9 | 25.7 | 0.00 | 0.00 | 0.00 | 1012.3 | |
| 20260505012535 | 27 | 96 | 12.9 | 25.7 | 0.00 | 0.00 | 0.00 | 1012.3 | |
| 20260505012423 | 27 | 90 | 11.3 | 19.3 | 0.00 | 0.00 | 0.00 | 1012.2 | |
| 20260505011534 | 27 | 90 | 11.3 | 19.3 | 0.00 | 0.00 | 0.00 | 1012.2 | |
| 20260505010534 | 27 | 101 | 14.5 | 25.7 | 0.00 | 0.00 | 0.00 | 1012.0 | |
| 20260505005534 | 27 | 108 | 16.1 | 24.1 | 0.00 | 0.00 | 0.00 | 1011.9 | |
| 20260505004533 | 28 | 93 | 12.9 | 17.7 | 0.00 | 0.00 | 0.00 | 1011.9 | |
| 20260505003533 | 28 | 59 | 14.5 | 24.1 | 0.00 | 0.00 | 0.00 | 1011.6 | |
| 20260505002533 | 28 | 55 | 12.9 | 20.9 | 0.00 | 0.00 | 0.00 | 1011.7 | |
| 20260505001533 | 28 | 104 | 12.9 | 22.5 | 0.00 | 0.00 | 0.00 | 1011.4 | |
| 20260505000532 | 28 | 79 | 11.3 | 22.5 | 0.00 | 0.00 | 0.00 | 1011.0 | |
| 20260504235532 | 29 | 75 | 9.7 | 17.7 | 0.00 | 0.00 | 0.00 | 1010.9 | |
| 20260504234532 | 29 | 114 | 12.9 | 22.5 | 0.00 | 0.00 | 0.00 | 1010.8 | |
| 20260504233532 | 30 | 110 | 12.9 | 19.3 | 0.00 | 0.00 | 0.00 | 1010.7 | |
| 20260504233045 | 30 | 108 | 11.3 | 25.7 | 0.00 | 0.00 | 0.00 | 1010.5 | |
| 20260504232532 | 30 | 62 | 11.3 | 19.3 | 0.00 | 0.00 | 0.00 | 1010.6 | |
| 20260504231531 | 30 | 111 | 12.9 | 25.7 | 0.00 | 0.00 | 0.00 | 1010.6 | |
| 20260504230531 | 30 | 108 | 11.3 | 25.7 | 0.00 | 0.00 | 0.00 | 1010.5 | |
| 20260504225531 | 31 | 110 | 14.5 | 24.1 | 0.00 | 0.00 | 0.00 | 1010.4 | |
| 20260504224530 | 31 | 104 | 11.3 | 17.7 | 0.00 | 0.00 | 0.00 | 1010.4 | |
| 20260504223530 | 31 | 31 | 16.1 | 30.6 | 0.00 | 0.00 | 0.00 | 1010.6 | |
| 20260504222530 | 31 | 60 | 12.9 | 16.1 | 0.00 | 0.00 | 0.00 | 1010.6 | |
| 20260504221530 | 31 | 60 | 12.9 | 17.7 | 0.00 | 0.00 | 0.00 | 1010.6 | |
| 20260504220713 | 31 | 76 | 11.3 | 19.3 | 0.00 | 0.00 | 0.00 | 1010.7 | |
| 20260504220529 | 31 | 76 | 11.3 | 19.3 | 0.00 | 0.00 | 0.00 | 1010.7 | |
| 20260504215529 | 31 | 44 | 14.5 | 20.9 | 0.00 | 0.00 | 0.00 | 1010.6 | |
| 20260504215009 | 32 | 89 | 8.0 | 12.9 | 0.00 | 0.00 | 0.00 | 1010.6 | |
| 20260504214529 | 32 | 89 | 8.0 | 12.9 | 0.00 | 0.00 | 0.00 | 1010.6 | |
| 20260504213529 | 32 | 104 | 12.9 | 30.6 | 0.00 | 0.00 | 0.00 | 1010.6 | |
| 20260504212528 | 32 | 56 | 17.7 | 27.4 | 0.00 | 0.00 | 0.00 | 1010.6 | |
| 20260504211528 | 31 | 48 | 11.3 | 19.3 | 0.00 | 0.00 | 0.00 | 1010.7 | |
| 20260504210725 | 31 | 53 | 11.3 | 19.3 | 0.00 | 0.00 | 0.00 | 1010.8 | |
| 20260504210528 | 31 | 53 | 11.3 | 19.3 | 0.00 | 0.00 | 0.00 | 1010.8 | |
| 20260504205528 | 31 | 59 | 14.5 | 17.7 | 0.00 | 0.00 | 0.00 | 1010.8 | |
| 20260504204527 | 31 | 115 | 11.3 | 17.7 | 0.00 | 0.00 | 0.00 | 1010.9 | |
| 20260504203527 | 31 | 94 | 11.3 | 19.3 | 0.00 | 0.00 | 0.00 | 1011.1 | |
| 20260504202527 | 31 | 65 | 16.1 | 22.5 | 0.00 | 0.00 | 0.00 | 1011.0 | |
| 20260504201527 | 31 | 96 | 8.0 | 12.9 | 0.00 | 0.00 | 0.00 | 1011.1 | |
| 20260504200526 | 31 | 62 | 4.8 | 12.9 | 0.00 | 0.00 | 0.00 | 1011.3 | |
| 20260504195526 | 31 | 52 | 17.7 | 25.7 | 0.00 | 0.00 | 0.00 | 1011.5 | |
| 20260504194526 | 31 | 51 | 12.9 | 16.1 | 0.00 | 0.00 | 0.00 | 1011.6 | |
| 20260504193525 | 30 | 42 | 6.4 | 14.5 | 0.00 | 0.00 | 0.00 | 1011.7 | |
| 20260504192526 | 30 | 91 | 11.3 | 17.7 | 0.00 | 0.00 | 0.00 | 1011.7 | |
| 20260504191525 | 30 | 103 | 12.9 | 25.7 | 0.00 | 0.00 | 0.00 | 1011.9 | |
| 20260504190524 | 29 | 83 | 8.0 | 12.9 | 0.00 | 0.00 | 0.00 | 1012.0 | |
| 20260504185523 | 30 | 104 | 9.7 | 22.5 | 0.00 | 0.00 | 0.00 | 1012.3 | |
| 20260504184523 | 29 | 58 | 14.5 | 20.9 | 0.00 | 0.00 | 0.00 | 1012.5 | |
| 20260504183522 | 29 | 48 | 9.7 | 14.5 | 0.00 | 0.00 | 0.00 | 1012.6 | |
| 20260504182522 | 28 | 79 | 19.3 | 25.7 | 0.00 | 0.00 | 0.00 | 1012.8 | |
| 20260504181522 | 28 | 76 | 17.7 | 24.1 | 0.00 | 0.00 | 0.00 | 1013.0 | |
| 20260504180522 | 28 | 107 | 19.3 | 29.0 | 0.00 | 0.00 | 0.00 | 1013.1 | |
| 20260504175521 | 27 | 63 | 14.5 | 22.5 | 0.00 | 0.00 | 0.00 | 1013.1 | |
| 20260504174522 | 28 | 65 | 17.7 | 20.9 | 0.00 | 0.00 | 0.00 | 1013.3 | |
| 20260504173521 | 27 | 27 | 14.5 | 19.3 | 0.00 | 0.00 | 0.00 | 1013.5 | |
| 20260504172521 | 27 | 104 | 11.3 | 22.5 | 0.00 | 0.00 | 0.00 | 1013.5 | |
| 20260504171520 | 27 | 59 | 16.1 | 19.3 | 0.00 | 0.00 | 0.00 | 1013.6 | |
| 20260504170520 | 27 | 79 | 19.3 | 32.2 | 0.00 | 0.00 | 0.00 | 1013.7 | |
| 20260504150516 | 23 | 58 | 20.9 | 30.6 | 0.00 | 0.00 | 0.00 | 1014.6 | |
| 20260504140512 | 22 | 90 | 16.1 | 22.5 | 0.00 | 0.00 | 0.00 | 1014.2 | |
| 20260504130510 | 20 | 59 | 20.9 | 30.6 | 0.00 | 0.00 | 0.00 | 1014.0 | |
| 20260504110502 | 20 | 25 | 9.7 | 12.9 | 0.00 | 0.00 | 0.00 | 1013.4 | |
| 20260504081452 | 21 | 77 | 9.7 | 16.1 | 0.00 | 0.00 | 0.00 | 1012.8 | |
| 20260504080452 | 21 | 49 | 14.5 | 20.9 | 0.00 | 0.00 | 0.00 | 1012.7 |